Time;durP1;ratioP1;P1;durP2;ratioP2;P2;SDS_P1;SDS_P2;PMS_P1;PMS_P2;Temp;Humidity;BMP_temperature;BMP_pressure;BME280_temperature;BME280_humidity;BME280_pressure;Samples;Min_cycle;Max_cycle;Signal;HPM_P1;HPM_P2
2021/12/13 00:02:30;;;;;;;10.07;5.00;;;4.50;89.20;;;;;;5053439;28;20029;-77
2021/12/13 00:05:08;;;;;;;10.25;4.55;;;4.50;89.20;;;;;;5053653;28;20083;-76
2021/12/13 00:07:39;;;;;;;7.10;3.58;;;4.60;89.10;;;;;;5053595;28;20074;-74
2021/12/13 00:10:17;;;;;;;9.05;4.40;;;4.50;89.10;;;;;;5053508;28;20024;-74
2021/12/13 00:12:48;;;;;;;8.38;4.30;;;4.40;89.30;;;;;;5069007;28;20385;-73
2021/12/13 00:15:30;;;;;;;6.88;4.05;;;4.40;89.60;;;;;;5053362;28;20420;-72
2021/12/13 00:17:57;;;;;;;6.82;4.32;;;4.40;89.70;;;;;;5053373;28;20021;-74
2021/12/13 00:20:39;;;;;;;9.57;4.03;;;4.40;89.80;;;;;;5053476;28;20100;-73
2021/12/13 00:23:25;;;;;;;8.00;3.78;;;4.40;89.90;;;;;;5053374;28;20017;-74
2021/12/13 00:25:53;;;;;;;8.15;3.70;;;4.40;90.70;;;;;;5053354;28;20017;-75
2021/12/13 00:28:21;;;;;;;8.25;3.65;;;4.40;90.20;;;;;;5053101;28;20112;-75
2021/12/13 00:30:52;;;;;;;9.45;3.47;;;4.40;90.40;;;;;;5053199;28;20025;-74
2021/12/13 00:33:34;;;;;;;7.40;3.00;;;4.40;90.50;;;;;;5053045;28;20041;-74
2021/12/13 00:36:06;;;;;;;7.55;3.08;;;4.40;90.50;;;;;;5053200;28;20155;-73
2021/12/13 00:38:39;;;;;;;8.30;2.97;;;4.50;90.60;;;;;;5053224;28;20021;-73
2021/12/13 00:41:12;;;;;;;6.32;2.60;;;4.60;90.40;;;;;;5053171;28;20017;-73
2021/12/13 00:43:51;;;;;;;6.78;2.50;;;4.60;90.30;;;;;;5053018;28;20029;-74
2021/12/13 00:46:20;;;;;;;7.63;2.58;;;4.60;90.30;;;;;;5052927;28;20025;-73
2021/12/13 00:48:49;;;;;;;5.30;2.58;;;4.60;90.50;;;;;;5034906;28;20027;-74
2021/12/13 00:51:22;;;;;;;5.07;2.70;;;4.60;90.60;;;;;;5052668;28;20028;-73
2021/12/13 00:53:50;;;;;;;8.95;2.70;;;4.60;90.70;;;;;;5052851;28;20025;-72
2021/12/13 00:56:47;;;;;;;7.55;2.85;;;4.60;90.70;;;;;;5052648;28;20029;-73
2021/12/13 00:59:19;;;;;;;;;;;4.60;90.60;;;;;;5053103;28;20024;-72
2021/12/13 01:02:09;;;;;;;6.13;2.35;;;4.70;90.70;;;;;;5052797;28;19906;-73
2021/12/13 01:04:56;;;;;;;6.50;2.83;;;4.70;90.60;;;;;;5052634;28;20489;-72
2021/12/13 01:07:53;;;;;;;6.35;3.00;;;4.70;90.50;;;;;;5052576;28;20075;-73
2021/12/13 01:10:42;;;;;;;6.20;3.30;;;4.60;90.30;;;;;;5052514;28;20032;-73
2021/12/13 01:13:14;;;;;;;8.10;3.05;;;4.60;90.60;;;;;;5052684;28;20025;-73
2021/12/13 01:15:55;;;;;;;6.72;2.75;;;4.60;90.70;;;;;;5055508;28;20032;-73
2021/12/13 01:21:10;;;;;;;6.85;3.10;;;4.70;90.90;;;;;;5056937;28;20021;-73
2021/12/13 01:28:44;;;;;;;4.18;2.20;;;4.70;90.80;;;;;;5056620;28;20040;-74
2021/12/13 01:31:15;;;;;;;6.35;2.50;;;4.70;91.00;;;;;;5056149;28;20017;-74
2021/12/13 01:33:45;;;;;;;3.95;2.38;;;4.60;90.90;;;;;;5056352;28;20126;-73
2021/12/13 01:36:14;;;;;;;3.88;2.10;;;4.70;91.10;;;;;;5056340;28;20076;-72
2021/12/13 01:38:52;;;;;;;3.60;1.50;;;4.70;91.30;;;;;;5056399;28;20355;-72
2021/12/13 01:41:22;;;;;;;5.50;2.40;;;4.70;91.40;;;;;;5056163;28;20029;-72
2021/12/13 01:43:54;;;;;;;4.00;2.15;;;4.70;91.60;;;;;;5056267;28;20024;-72
2021/12/13 01:46:21;;;;;;;8.70;2.55;;;4.80;91.30;;;;;;5056285;28;20021;-74
2021/12/13 01:48:50;;;;;;;3.90;1.98;;;4.80;91.30;;;;;;5056149;28;20025;-74
2021/12/13 01:51:20;;;;;;;6.45;1.90;;;4.80;91.40;;;;;;5056171;28;20390;-72
2021/12/13 01:53:50;;;;;;;3.60;1.85;;;4.90;91.50;;;;;;5056152;28;20025;-74
2021/12/13 01:59:28;;;;;;;3.45;2.22;;;4.90;91.30;;;;;;5056062;28;20029;-74
2021/12/13 02:01:57;;;;;;;6.30;3.10;;;4.90;91.00;;;;;;5056008;28;20021;-73
2021/12/13 02:04:24;;;;;;;8.48;3.33;;;5.00;90.80;;;;;;5055866;28;20108;-73
2021/12/13 02:06:54;;;;;;;7.45;2.83;;;5.00;90.70;;;;;;5055874;28;20469;-74
2021/12/13 02:09:24;;;;;;;4.68;2.00;;;5.00;90.50;;;;;;5055735;28;20020;-73
2021/12/13 02:11:56;;;;;;;3.65;1.42;;;5.00;90.10;;;;;;5055895;28;20024;-77
2021/12/13 02:14:27;;;;;;;5.25;1.75;;;5.00;90.10;;;;;;5055632;28;20071;-77
2021/12/13 02:17:13;;;;;;;3.25;1.50;;;5.00;90.20;;;;;;5055725;28;20506;-75
2021/12/13 02:19:50;;;;;;;4.07;1.73;;;4.90;90.60;;;;;;5055689;28;20492;-78
2021/12/13 02:22:33;;;;;;;6.63;2.08;;;4.90;91.00;;;;;;5055525;28;20025;-78
2021/12/13 02:25:09;;;;;;;4.30;1.80;;;4.90;91.20;;;;;;5055480;28;20028;-77
2021/12/13 02:27:38;;;;;;;5.68;1.98;;;4.80;91.40;;;;;;5055499;28;20103;-74
2021/12/13 02:30:12;;;;;;;5.80;2.17;;;4.90;91.60;;;;;;5055337;28;20083;-74
2021/12/13 02:32:40;;;;;;;5.40;2.00;;;4.90;91.50;;;;;;5055207;28;20049;-74
2021/12/13 02:35:08;;;;;;;7.30;2.17;;;4.80;91.20;;;;;;5070688;28;20060;-73
2021/12/13 02:37:35;;;;;;;6.60;2.10;;;4.90;91.30;;;;;;5055162;28;20104;-73
2021/12/13 02:40:02;;;;;;;4.00;2.38;;;4.90;91.20;;;;;;5055159;28;20424;-73
2021/12/13 02:42:31;;;;;;;2.97;1.65;;;4.90;91.20;;;;;;5054982;28;20025;-73
2021/12/13 02:45:26;;;;;;;4.30;1.80;;;4.90;91.20;;;;;;5055139;28;20112;-73
2021/12/13 02:48:07;;;;;;;3.30;1.73;;;4.90;91.50;;;;;;5055115;28;20095;-73
2021/12/13 02:50:50;;;;;;;5.28;1.40;;;4.90;91.70;;;;;;5055078;28;20029;-74
2021/12/13 02:53:32;;;;;;;6.20;1.77;;;4.90;92.20;;;;;;5054952;28;20021;-73
2021/12/13 02:55:58;;;;;;;3.38;1.42;;;4.80;92.40;;;;;;5054894;28;20044;-73
2021/12/13 02:58:27;;;;;;;2.28;1.33;;;4.90;92.50;;;;;;5054882;28;20060;-73
2021/12/13 03:01:04;;;;;;;2.60;1.67;;;4.90;92.50;;;;;;5054861;28;20416;-73
2021/12/13 03:03:33;;;;;;;3.60;1.48;;;4.90;92.50;;;;;;5054864;28;20056;-74
2021/12/13 03:06:01;;;;;;;3.05;1.38;;;5.00;92.60;;;;;;5054837;28;20025;-74
2021/12/13 03:08:39;;;;;;;5.80;1.63;;;5.00;92.50;;;;;;5054673;28;20013;-73
2021/12/13 03:11:11;;;;;;;5.22;1.90;;;5.00;92.50;;;;;;5070078;28;20040;-75
2021/12/13 03:13:38;;;;;;;3.40;1.48;;;5.00;92.70;;;;;;5070112;28;20025;-73
2021/12/13 03:16:10;;;;;;;8.02;2.00;;;5.00;92.80;;;;;;5054509;28;20116;-74
2021/12/13 03:18:51;;;;;;;2.00;0.90;;;5.00;92.70;;;;;;5054641;28;20101;-76
2021/12/13 03:21:24;;;;;;;7.68;1.52;;;5.00;92.60;;;;;;5054510;28;20116;-76
2021/12/13 03:24:17;;;;;;;3.17;1.13;;;5.00;92.90;;;;;;5054543;28;20029;-77
2021/12/13 03:26:57;;;;;;;2.92;1.30;;;5.00;93.20;;;;;;5054317;28;20022;-76
2021/12/13 03:29:41;;;;;;;5.40;1.40;;;5.00;93.20;;;;;;5054247;28;20058;-77
2021/12/13 03:32:12;;;;;;;4.57;0.98;;;5.00;93.30;;;;;;5054218;28;20401;-76
2021/12/13 03:34:40;;;;;;;4.65;1.42;;;4.90;93.40;;;;;;5054171;28;20082;-77
2021/12/13 03:37:18;;;;;;;4.00;1.70;;;5.00;93.50;;;;;;5053609;28;20067;-77
2021/12/13 03:39:55;;;;;;;10.38;2.88;;;5.00;93.20;;;;;;5036106;28;20025;-78
2021/12/13 03:42:26;;;;;;;5.10;3.05;;;5.00;93.10;;;;;;5054089;28;20075;-77
2021/12/13 03:44:58;;;;;;;6.30;3.72;;;5.00;93.10;;;;;;5053952;28;20358;-78
2021/12/13 03:47:34;;;;;;;7.25;4.88;;;5.00;93.10;;;;;;5053708;28;20023;-77
2021/12/13 03:50:06;;;;;;;10.63;5.70;;;5.00;92.80;;;;;;5053956;28;20504;-78
2021/12/13 03:52:32;;;;;;;10.18;6.00;;;4.90;92.30;;;;;;5053799;28;20025;-77
2021/12/13 03:54:59;;;;;;;11.80;5.68;;;4.90;92.20;;;;;;5053672;28;20477;-78
2021/12/13 03:57:27;;;;;;;12.05;6.43;;;5.00;92.00;;;;;;5035920;28;20040;-77
2021/12/13 03:59:53;;;;;;;10.95;6.30;;;5.00;91.70;;;;;;5053725;28;20021;-78
2021/12/13 04:02:28;;;;;;;10.88;6.20;;;5.00;92.30;;;;;;5053529;28;20054;-78
2021/12/13 04:04:59;;;;;;;11.15;6.38;;;5.00;91.20;;;;;;5053578;28;20091;-77
2021/12/13 04:07:32;;;;;;;7.68;5.05;;;5.00;90.90;;;;;;5053550;28;20111;-78
2021/12/13 04:10:04;;;;;;;6.68;2.75;;;5.00;90.70;;;;;;5053581;28;20021;-78
2021/12/13 04:12:41;;;;;;;6.07;2.60;;;5.10;91.90;;;;;;5053525;28;20075;-78
2021/12/13 04:15:17;;;;;;;5.63;2.85;;;5.00;91.60;;;;;;5068690;28;20028;-78
2021/12/13 04:17:56;;;;;;;8.95;3.70;;;5.00;91.70;;;;;;5053490;28;20017;-77
2021/12/13 04:20:36;;;;;;;9.20;3.13;;;5.00;91.90;;;;;;5053347;28;20067;-77
2021/12/13 04:23:15;;;;;;;11.88;4.22;;;5.00;92.00;;;;;;5053251;28;20140;-77
2021/12/13 04:25:44;;;;;;;10.52;6.68;;;5.00;92.10;;;;;;5053273;28;20025;-76
2021/12/13 04:28:15;;;;;;;10.82;5.72;;;4.90;92.30;;;;;;5053055;28;20082;-76
2021/12/13 04:30:44;;;;;;;14.23;5.25;;;4.80;92.40;;;;;;5053336;28;20025;-76
2021/12/13 04:33:21;;;;;;;8.90;4.13;;;4.90;92.80;;;;;;5053020;28;20051;-77
2021/12/13 04:35:53;;;;;;;9.18;4.45;;;4.80;92.80;;;;;;5053099;28;20036;-77
2021/12/13 04:38:25;;;;;;;9.48;5.30;;;4.90;93.10;;;;;;5052904;28;20017;-77
2021/12/13 04:40:53;;;;;;;12.90;4.97;;;4.90;93.30;;;;;;5053013;28;20528;-76
2021/12/13 04:43:20;;;;;;;14.10;6.05;;;4.90;93.30;;;;;;5053005;28;20036;-76
2021/12/13 04:45:57;;;;;;;12.95;5.50;;;5.00;93.30;;;;;;5052850;28;20029;-79
2021/12/13 04:48:32;;;;;;;16.98;6.20;;;4.90;93.60;;;;;;5052508;28;20028;-76
2021/12/13 04:51:09;;;;;;;16.90;6.75;;;4.90;93.90;;;;;;5069390;28;20025;-72
2021/12/13 04:53:46;;;;;;;19.33;7.43;;;4.80;93.80;;;;;;5052644;28;20017;-72
2021/12/13 04:56:16;;;;;;;20.15;8.10;;;4.80;93.90;;;;;;5052348;28;20347;-73
2021/12/13 04:58:45;;;;;;;16.85;7.15;;;4.80;94.00;;;;;;5052622;28;20028;-72
2021/12/13 05:01:13;;;;;;;15.00;6.90;;;4.80;94.10;;;;;;5052602;28;20103;-73
2021/12/13 05:03:48;;;;;;;17.80;8.63;;;4.70;94.40;;;;;;5067940;28;20552;-76
2021/12/13 05:06:24;;;;;;;22.55;9.85;;;4.80;94.30;;;;;;5052469;28;20385;-76
2021/12/13 05:08:54;;;;;;;17.33;8.45;;;4.80;94.30;;;;;;5052611;28;20491;-75
2021/12/13 05:11:20;;;;;;;17.10;7.22;;;4.80;94.30;;;;;;5052648;28;20059;-75
2021/12/13 05:13:55;;;;;;;16.85;7.82;;;4.90;94.30;;;;;;5052533;28;20685;-75
2021/12/13 05:16:48;;;;;;;20.75;8.63;;;4.90;94.00;;;;;;5052150;28;20095;-75
2021/12/13 05:19:24;;;;;;;18.33;8.30;;;4.90;93.80;;;;;;5052171;28;20041;-77
2021/12/13 05:21:51;;;;;;;20.63;8.93;;;4.90;93.70;;;;;;5052726;28;20036;-77
2021/12/13 05:24:23;;;;;;;20.50;8.20;;;4.90;93.50;;;;;;5052609;28;20032;-74
2021/12/13 05:26:54;;;;;;;16.20;8.15;;;4.90;93.40;;;;;;5034732;28;20453;-76
2021/12/13 05:29:33;;;;;;;15.63;6.97;;;4.90;93.30;;;;;;5052561;28;20048;-76
2021/12/13 05:32:07;;;;;;;15.52;7.55;;;4.90;93.20;;;;;;5052265;28;20040;-76
2021/12/13 05:34:37;;;;;;;14.77;6.47;;;4.90;93.20;;;;;;5052113;28;20377;-76
2021/12/13 05:37:06;;;;;;;13.52;5.95;;;4.90;93.20;;;;;;5067820;28;20036;-75
2021/12/13 05:39:33;;;;;;;15.90;5.78;;;4.90;93.20;;;;;;5052415;28;20104;-75
2021/12/13 05:42:07;;;;;;;12.13;5.47;;;4.90;93.40;;;;;;5052377;28;20139;-75
2021/12/13 05:44:42;;;;;;;14.80;6.32;;;4.90;93.30;;;;;;5052222;28;20028;-77
2021/12/13 05:47:21;;;;;;;15.18;6.82;;;4.90;93.40;;;;;;5052271;28;20040;-76
2021/12/13 05:49:47;;;;;;;13.77;6.70;;;4.90;93.40;;;;;;5067584;28;20125;-74
2021/12/13 05:52:17;;;;;;;14.30;6.90;;;4.90;93.40;;;;;;5051784;28;20033;-77
2021/12/13 05:54:48;;;;;;;11.75;6.72;;;4.90;93.20;;;;;;5051930;28;20370;-77
2021/12/13 05:57:20;;;;;;;14.73;7.25;;;4.90;93.10;;;;;;5052177;28;20409;-77
2021/12/13 06:00:14;;;;;;;13.10;7.20;;;4.90;93.00;;;;;;5052116;28;20047;-77
2021/12/13 06:03:08;;;;;;;15.23;7.30;;;4.90;92.90;;;;;;5055859;28;20032;-77
2021/12/13 06:05:37;;;;;;;13.85;6.28;;;4.90;93.10;;;;;;5056001;28;20033;-78
2021/12/13 06:08:15;;;;;;;14.45;6.65;;;4.90;93.10;;;;;;5055635;28;20021;-77
2021/12/13 06:10:48;;;;;;;16.13;7.40;;;5.00;92.90;;;;;;5055776;28;20017;-78
2021/12/13 06:13:43;;;;;;;16.85;7.15;;;4.90;93.00;;;;;;5055441;28;20124;-79
2021/12/13 06:16:19;;;;;;;17.83;8.68;;;4.90;93.00;;;;;;5055077;28;20044;-79
2021/12/13 06:19:02;;;;;;;18.75;8.10;;;5.00;92.80;;;;;;5055570;28;20021;-76
2021/12/13 06:21:47;;;;;;;15.00;7.72;;;4.90;92.50;;;;;;5055597;28;20029;-77
2021/12/13 06:24:13;;;;;;;19.13;8.65;;;4.90;92.50;;;;;;5055206;28;20044;-77
2021/12/13 06:26:39;;;;;;;18.92;8.27;;;4.90;92.50;;;;;;5055364;28;20078;-77
2021/12/13 06:29:08;;;;;;;15.77;7.55;;;4.90;92.40;;;;;;5054908;28;20028;-76
2021/12/13 06:31:45;;;;;;;17.98;8.38;;;4.90;92.40;;;;;;5054705;28;20166;-80
2021/12/13 06:34:14;;;;;;;16.85;7.90;;;4.90;92.70;;;;;;5034970;28;20033;-76
2021/12/13 06:36:49;;;;;;;19.77;8.98;;;4.90;92.70;;;;;;5035119;28;20067;-76
2021/12/13 06:39:27;;;;;;;18.33;8.38;;;5.00;92.40;;;;;;5033838;28;20025;-77
2021/12/13 06:42:05;;;;;;;19.02;7.93;;;4.90;92.30;;;;;;5035242;28;20116;-74
2021/12/13 06:44:36;;;;;;;16.55;9.07;;;4.90;92.10;;;;;;5033802;28;20021;-75
2021/12/13 06:47:08;;;;;;;13.50;7.43;;;4.90;92.00;;;;;;5035134;28;20044;-74
2021/12/13 06:49:33;;;;;;;19.33;8.07;;;4.90;92.10;;;;;;5034930;28;20500;-76
2021/12/13 06:52:01;;;;;;;15.55;8.13;;;4.90;92.20;;;;;;5034880;28;20025;-74
2021/12/13 06:54:46;;;;;;;16.30;8.63;;;5.00;92.20;;;;;;5034896;28;20052;-74
2021/12/13 06:57:23;;;;;;;18.38;10.43;;;5.00;92.50;;;;;;5034754;28;20115;-74
2021/12/13 06:59:57;;;;;;;17.58;9.00;;;5.00;92.20;;;;;;5034854;28;20112;-75
2021/12/13 07:02:24;;;;;;;20.48;9.60;;;5.00;92.10;;;;;;5034504;28;20087;-74
2021/12/13 07:05:09;;;;;;;16.55;7.95;;;5.00;92.10;;;;;;5034144;28;20421;-74
2021/12/13 07:07:47;;;;;;;11.15;5.07;;;5.10;92.20;;;;;;5034055;28;20021;-74
2021/12/13 07:10:19;;;;;;;15.35;8.50;;;5.10;91.80;;;;;;5034365;28;20025;-74
2021/12/13 07:12:58;;;;;;;18.77;8.68;;;5.10;91.60;;;;;;5033653;28;20022;-74
2021/12/13 07:15:29;;;;;;;16.58;8.80;;;5.10;92.30;;;;;;5034344;28;20124;-74
2021/12/13 07:18:05;;;;;;;17.50;8.68;;;5.10;91.50;;;;;;5034388;28;20346;-73
2021/12/13 07:20:40;;;;;;;15.75;7.45;;;5.10;92.20;;;;;;5034450;28;20030;-74
2021/12/13 07:23:06;;;;;;;19.45;8.38;;;5.10;91.40;;;;;;5034582;28;20053;-73
2021/12/13 07:25:38;;;;;;;18.25;8.77;;;5.10;91.40;;;;;;5034302;28;20103;-74
2021/12/13 07:28:05;;;;;;;18.98;8.32;;;5.10;91.10;;;;;;5034219;28;20032;-73
2021/12/13 07:30:33;;;;;;;16.55;7.90;;;5.10;91.00;;;;;;5034118;28;20079;-74
2021/12/13 07:33:07;;;;;;;19.42;8.13;;;5.10;91.10;;;;;;5045545;28;20056;-74
2021/12/13 07:35:43;;;;;;;19.10;8.52;;;5.10;91.80;;;;;;5069234;28;20455;-74
2021/12/13 07:38:22;;;;;;;19.92;8.38;;;5.20;90.90;;;;;;5054083;28;20074;-76
2021/12/13 07:40:58;;;;;;;15.85;7.07;;;5.20;90.90;;;;;;5054221;28;20025;-76
2021/12/13 07:43:28;;;;;;;13.70;6.80;;;5.20;90.70;;;;;;5054062;28;20021;-73
2021/12/13 07:45:54;;;;;;;15.13;7.25;;;5.30;90.80;;;;;;5054046;28;20021;-74
2021/12/13 07:48:41;;;;;;;18.05;7.38;;;5.40;90.80;;;;;;5053959;28;20017;-74
2021/12/13 07:51:09;;;;;;;12.40;6.30;;;5.40;90.70;;;;;;5054015;28;20025;-76
2021/12/13 07:53:37;;;;;;;17.13;6.57;;;5.50;90.50;;;;;;5054057;28;20107;-76
2021/12/13 07:56:04;;;;;;;13.63;6.70;;;5.60;90.30;;;;;;5069227;28;20044;-74
2021/12/13 07:58:41;;;;;;;15.73;6.30;;;5.60;90.10;;;;;;5053855;28;20028;-74
2021/12/13 08:01:17;;;;;;;15.52;7.60;;;5.60;89.90;;;;;;5069128;28;20025;-76
2021/12/13 08:03:46;;;;;;;15.55;8.55;;;5.70;90.00;;;;;;5053736;28;20040;-74
2021/12/13 08:06:12;;;;;;;18.83;9.52;;;5.70;89.80;;;;;;5053639;28;20029;-77
2021/12/13 08:08:46;;;;;;;18.70;9.27;;;5.80;89.70;;;;;;5053623;28;20056;-73
2021/12/13 08:11:12;;;;;;;17.27;8.10;;;5.80;89.60;;;;;;5053155;28;20052;-74
2021/12/13 08:13:38;;;;;;;14.40;7.38;;;6.10;94.60;;;;;;5053681;28;20405;-73
2021/12/13 08:16:08;;;;;;;14.23;7.53;;;6.50;94.90;;;;;;5053534;28;20301;-74
2021/12/13 08:18:40;;;;;;;13.90;7.15;;;6.80;93.00;;;;;;5053483;28;20017;-76
2021/12/13 08:21:23;;;;;;;12.40;7.15;;;7.00;88.80;;;;;;5053814;28;20029;-77
2021/12/13 08:23:57;;;;;;;22.13;8.88;;;7.20;88.10;;;;;;5068531;28;20032;-77
2021/12/13 08:26:29;;;;;;;16.23;8.40;;;7.40;85.90;;;;;;5053303;28;20394;-75
2021/12/13 08:28:57;;;;;;;21.42;8.82;;;7.50;84.70;;;;;;5053324;28;20025;-76
2021/12/13 08:31:33;;;;;;;16.00;7.40;;;7.60;84.30;;;;;;5053248;28;20021;-74
2021/12/13 08:34:33;;;;;;;14.23;7.43;;;7.50;84.20;;;;;;5053146;28;20079;-73
2021/12/13 08:36:59;;;;;;;11.40;7.00;;;7.40;84.20;;;;;;5053137;28;20029;-73
2021/12/13 08:39:36;;;;;;;22.83;9.60;;;7.40;84.20;;;;;;5053089;28;20326;-74
2021/12/13 08:42:10;;;;;;;17.00;7.25;;;7.30;84.10;;;;;;5052961;28;20033;-74
2021/12/13 08:44:47;;;;;;;19.33;8.10;;;7.30;84.30;;;;;;5053027;28;20100;-73
2021/12/13 08:47:20;;;;;;;24.17;8.27;;;7.30;84.20;;;;;;5052816;28;20107;-76
2021/12/13 08:49:52;;;;;;;21.42;8.55;;;7.30;84.30;;;;;;5052857;28;20056;-73
2021/12/13 08:52:20;;;;;;;19.10;7.57;;;7.30;84.10;;;;;;5052916;28;20358;-73
2021/12/13 08:54:51;;;;;;;12.93;6.70;;;7.20;84.00;;;;;;5052699;28;20104;-73
2021/12/13 08:57:37;;;;;;;25.17;8.65;;;7.30;84.20;;;;;;5052657;28;20036;-73
2021/12/13 09:00:12;;;;;;;17.35;7.47;;;7.20;83.90;;;;;;5068023;28;20125;-73
2021/12/13 09:02:44;;;;;;;18.63;8.10;;;7.30;84.20;;;;;;5052740;28;20323;-74
2021/12/13 09:05:16;;;;;;;19.92;7.88;;;7.20;84.20;;;;;;5052561;28;20017;-74
2021/12/13 09:07:54;;;;;;;20.25;7.90;;;7.10;85.00;;;;;;5052476;28;20033;-74
2021/12/13 09:10:21;;;;;;;17.67;7.85;;;7.20;84.90;;;;;;5052542;28;20017;-74
2021/12/13 09:12:47;;;;;;;20.77;8.07;;;7.00;85.80;;;;;;5052529;28;20381;-74
2021/12/13 09:15:26;;;;;;;25.50;8.65;;;7.10;85.70;;;;;;5052388;28;20171;-74
2021/12/13 09:17:52;;;;;;;26.33;9.23;;;7.20;85.60;;;;;;5052640;28;20024;-74
2021/12/13 09:20:45;;;;;;;30.95;8.98;;;7.10;85.90;;;;;;5067754;28;20033;-75
2021/12/13 09:23:18;;;;;;;22.10;8.55;;;7.20;86.00;;;;;;5052172;28;20044;-75
2021/12/13 09:25:50;;;;;;;28.60;8.95;;;7.30;85.70;;;;;;5052270;28;20404;-75
2021/12/13 09:28:29;;;;;;;22.52;8.80;;;7.30;85.20;;;;;;5052289;28;20059;-75
2021/12/13 09:31:25;;;;;;;21.27;9.05;;;7.40;85.20;;;;;;5052578;28;20055;-75
2021/12/13 09:33:58;;;;;;;22.85;9.25;;;7.60;85.00;;;;;;5050660;28;20163;-75
2021/12/13 09:36:31;;;;;;;23.20;9.50;;;7.60;84.40;;;;;;5054558;28;20477;-75
2021/12/13 09:39:03;;;;;;;25.27;9.30;;;7.50;84.30;;;;;;5071726;28;20025;-75
2021/12/13 09:41:42;;;;;;;24.10;9.68;;;7.60;84.40;;;;;;5071980;28;20067;-75
2021/12/13 09:44:08;;;;;;;19.00;7.88;;;7.70;84.40;;;;;;5062377;28;20096;-76
2021/12/13 09:47:08;;;;;;;16.83;7.65;;;7.90;84.10;;;;;;5075185;28;20080;-76
2021/12/13 09:50:08;;;;;;;19.63;7.72;;;8.10;83.90;;;;;;5024983;28;20477;-75
2021/12/13 09:52:40;;;;;;;23.20;9.02;;;8.30;82.90;;;;;;5018828;28;20048;-74
2021/12/13 09:55:17;;;;;;;22.13;9.05;;;8.30;82.30;;;;;;5071527;28;20029;-76
2021/12/13 09:57:56;;;;;;;23.52;9.13;;;8.30;82.00;;;;;;5071360;28;20021;-75
2021/12/13 10:00:52;;;;;;;23.63;9.35;;;8.40;81.80;;;;;;5055899;28;20470;-76
2021/12/13 10:03:20;;;;;;;23.42;8.55;;;8.40;81.70;;;;;;5036193;28;20036;-77
2021/12/13 10:05:49;;;;;;;28.00;10.45;;;8.30;82.00;;;;;;5055462;28;20024;-76
2021/12/13 10:08:23;;;;;;;23.88;9.88;;;8.20;82.50;;;;;;5070972;28;20108;-77
2021/12/13 10:10:57;;;;;;;18.85;8.27;;;8.10;83.40;;;;;;5071161;28;20092;-74
2021/12/13 10:13:28;;;;;;;20.75;8.73;;;8.10;83.30;;;;;;5071210;28;20021;-76
2021/12/13 10:16:07;;;;;;;17.17;8.55;;;8.10;83.70;;;;;;5055864;28;20033;-75
2021/12/13 10:18:36;;;;;;;23.58;9.40;;;7.90;84.20;;;;;;5071256;28;20021;-76
2021/12/13 10:21:32;;;;;;;19.60;8.77;;;7.70;85.70;;;;;;5070828;28;20052;-73
2021/12/13 10:24:13;;;;;;;16.98;8.23;;;7.60;86.20;;;;;;5050955;28;20025;-74
2021/12/13 10:26:43;;;;;;;20.08;7.68;;;7.50;86.70;;;;;;5070770;28;20055;-74
2021/12/13 10:29:12;;;;;;;21.45;9.23;;;7.60;86.70;;;;;;5070735;28;20111;-74
2021/12/13 10:31:57;;;;;;;20.52;8.93;;;7.50;87.30;;;;;;5070778;28;20074;-74
2021/12/13 10:34:33;;;;;;;19.10;8.52;;;7.60;87.10;;;;;;5050258;28;20033;-75
2021/12/13 10:37:12;;;;;;;21.55;9.35;;;7.60;87.10;;;;;;5070610;28;20029;-74
2021/12/13 10:39:44;;;;;;;20.83;8.10;;;7.60;87.20;;;;;;5054685;28;20581;-76
2021/12/13 10:42:14;;;;;;;17.40;8.02;;;7.70;87.40;;;;;;5070723;28;20032;-75
2021/12/13 10:44:44;;;;;;;24.77;9.13;;;7.70;87.50;;;;;;5055004;28;20029;-74
2021/12/13 10:47:17;;;;;;;21.23;8.52;;;7.70;87.70;;;;;;5069074;28;20021;-73
2021/12/13 10:49:45;;;;;;;19.20;8.40;;;7.80;87.50;;;;;;5053535;28;20060;-73
2021/12/13 10:52:28;;;;;;;19.15;9.30;;;7.90;87.20;;;;;;5070509;28;20031;-73
2021/12/13 10:54:58;;;;;;;18.73;8.60;;;8.00;87.00;;;;;;5054745;28;22359;-75
2021/12/13 10:57:35;;;;;;;16.50;8.60;;;8.10;87.00;;;;;;5037025;28;20095;-73
2021/12/13 11:00:06;;;;;;;23.70;10.02;;;8.00;86.70;;;;;;5069849;28;20021;-74
2021/12/13 11:02:35;;;;;;;18.90;9.50;;;7.90;87.10;;;;;;5036359;28;20043;-73
2021/12/13 11:05:10;;;;;;;19.20;9.68;;;7.90;87.50;;;;;;5069888;28;20473;-73
2021/12/13 11:07:37;;;;;;;22.60;9.90;;;7.90;87.60;;;;;;5069779;28;20579;-72
2021/12/13 11:10:08;;;;;;;17.30;8.75;;;8.00;87.60;;;;;;5069797;28;20350;-71
2021/12/13 11:12:44;;;;;;;21.30;10.77;;;8.10;87.60;;;;;;5054035;28;20436;-73
2021/12/13 11:15:17;;;;;;;18.65;9.93;;;8.10;87.10;;;;;;5069379;28;20497;-73
2021/12/13 11:17:43;;;;;;;16.65;9.57;;;8.20;87.00;;;;;;5054032;28;20063;-73
2021/12/13 11:20:26;;;;;;;23.15;10.15;;;8.20;86.50;;;;;;5069528;28;20024;-74
2021/12/13 11:22:53;;;;;;;19.83;9.75;;;8.20;86.30;;;;;;5036407;28;20029;-75
2021/12/13 11:25:26;;;;;;;15.32;9.48;;;8.20;86.40;;;;;;5068020;28;20090;-76
2021/12/13 11:27:52;;;;;;;22.40;10.23;;;8.20;86.70;;;;;;5052760;28;20021;-74
2021/12/13 11:30:28;;;;;;;21.77;11.27;;;8.20;86.70;;;;;;5035225;28;20040;-75
2021/12/13 11:32:57;;;;;;;22.73;11.30;;;8.30;86.70;;;;;;5052062;28;20040;-74
2021/12/13 11:35:48;;;;;;;21.63;11.55;;;8.20;86.70;;;;;;5035247;28;20457;-72
2021/12/13 11:38:35;;;;;;;23.65;11.43;;;8.10;87.20;;;;;;5036336;28;20036;-75
2021/12/13 11:41:31;;;;;;;18.38;10.88;;;8.00;87.50;;;;;;5053618;28;20032;-72
2021/12/13 11:44:30;;;;;;;27.08;13.05;;;8.10;87.70;;;;;;5035810;28;20021;-75
2021/12/13 11:47:34;;;;;;;24.35;12.38;;;8.20;87.50;;;;;;5053860;28;20037;-73
2021/12/13 11:50:31;;;;;;;22.52;12.77;;;8.20;87.60;;;;;;5035032;28;20021;-74
2021/12/13 11:53:15;;;;;;;26.95;14.02;;;8.30;87.20;;;;;;5052827;28;20056;-74
2021/12/13 11:55:50;;;;;;;27.58;14.30;;;8.30;87.10;;;;;;5053344;28;20025;-73
2021/12/13 11:58:43;;;;;;;23.17;11.73;;;8.40;86.90;;;;;;5052374;28;20473;-74
2021/12/13 12:01:30;;;;;;;25.70;13.55;;;8.50;86.80;;;;;;5034847;28;20021;-74
2021/12/13 12:04:08;;;;;;;29.35;15.23;;;8.40;86.80;;;;;;5052925;28;20033;-74
2021/12/13 12:06:58;;;;;;;33.03;17.13;;;8.40;86.60;;;;;;5052556;28;20101;-74
2021/12/13 12:09:53;;;;;;;31.48;16.48;;;8.30;87.30;;;;;;5053277;28;20056;-74
2021/12/13 12:12:47;;;;;;;34.50;18.85;;;8.30;87.30;;;;;;5053217;28;20389;-73
2021/12/13 12:15:15;;;;;;;30.90;15.43;;;8.40;87.10;;;;;;5035087;28;20508;-73
2021/12/13 12:17:40;;;;;;;27.10;14.30;;;8.50;87.00;;;;;;5053210;28;20051;-76
2021/12/13 12:20:11;;;;;;;33.10;15.52;;;8.60;86.80;;;;;;5035151;28;20029;-74
2021/12/13 12:22:53;;;;;;;29.08;15.80;;;8.60;85.90;;;;;;5052946;28;20031;-75
2021/12/13 12:25:23;;;;;;;23.55;14.65;;;8.70;86.00;;;;;;5052905;28;20474;-76
2021/12/13 12:27:54;;;;;;;25.77;14.45;;;8.70;85.80;;;;;;5035255;28;20079;-75
2021/12/13 12:30:25;;;;;;;26.63;13.80;;;8.80;85.70;;;;;;5034721;28;20114;-74
2021/12/13 12:32:55;;;;;;;26.88;14.90;;;9.00;85.50;;;;;;5034899;28;20409;-73
2021/12/13 12:35:25;;;;;;;30.42;15.30;;;9.00;84.70;;;;;;5034521;28;20499;-74
2021/12/13 12:38:01;;;;;;;28.52;14.55;;;8.80;85.00;;;;;;5018686;28;20140;-75
2021/12/13 12:40:47;;;;;;;23.08;12.40;;;8.80;85.70;;;;;;5053099;28;20316;-73
2021/12/13 12:43:22;;;;;;;24.42;11.93;;;8.90;85.80;;;;;;5052441;28;20170;-72
2021/12/13 12:46:00;;;;;;;26.02;14.07;;;9.10;85.40;;;;;;5034840;28;20102;-72
2021/12/13 12:48:33;;;;;;;27.25;13.00;;;9.20;84.30;;;;;;5034914;28;20465;-73
2021/12/13 12:51:18;;;;;;;26.92;13.73;;;9.20;84.20;;;;;;5052734;28;20027;-73
2021/12/13 12:54:07;;;;;;;29.97;14.07;;;9.40;83.70;;;;;;5035021;28;20115;-73
2021/12/13 12:56:42;;;;;;;22.88;11.27;;;9.40;83.50;;;;;;5034770;28;20100;-73
2021/12/13 12:59:13;;;;;;;27.90;13.20;;;9.40;83.50;;;;;;5034875;28;20043;-73
2021/12/13 13:01:43;;;;;;;24.80;11.88;;;9.40;83.70;;;;;;5035009;28;20465;-75
2021/12/13 13:04:22;;;;;;;29.42;12.82;;;9.30;83.80;;;;;;5034734;28;20025;-73
2021/12/13 13:07:14;;;;;;;24.02;11.57;;;9.30;84.20;;;;;;5052561;28;20436;-76
2021/12/13 13:09:45;;;;;;;38.40;12.43;;;9.20;84.30;;;;;;5052491;28;20017;-78
2021/12/13 13:12:17;;;;;;;19.95;11.32;;;9.00;85.20;;;;;;5052828;28;20021;-73
2021/12/13 13:14:53;;;;;;;27.70;12.07;;;8.80;85.90;;;;;;5034905;28;20380;-73
2021/12/13 13:17:25;;;;;;;21.42;12.43;;;8.70;86.20;;;;;;5034564;28;20459;-75
2021/12/13 13:19:56;;;;;;;24.23;11.98;;;8.60;87.00;;;;;;5018419;28;20029;-72
2021/12/13 13:22:29;;;;;;;21.35;11.73;;;8.60;87.10;;;;;;5052689;28;20457;-75
2021/12/13 13:24:59;;;;;;;22.67;11.65;;;8.60;87.40;;;;;;5034730;28;20060;-73
2021/12/13 13:27:28;;;;;;;20.70;11.63;;;8.60;87.30;;;;;;5034741;28;20025;-73
2021/12/13 13:29:54;;;;;;;19.35;11.80;;;8.60;87.20;;;;;;5034853;28;20480;-73
2021/12/13 13:32:20;;;;;;;21.17;11.88;;;8.50;87.20;;;;;;5052296;28;20041;-74
2021/12/13 13:34:51;;;;;;;19.75;11.50;;;8.50;87.70;;;;;;5037138;28;20493;-73
2021/12/13 13:37:28;;;;;;;21.50;11.57;;;8.40;87.70;;;;;;5047725;28;20066;-74
2021/12/13 13:40:01;;;;;;;20.40;11.07;;;8.40;87.70;;;;;;5064284;28;20377;-76